createdAt,value
2018-11-07T00:00:09.557Z,31.37
2018-11-07T00:02:38.544Z,36.73
2018-11-07T00:05:07.690Z,36.70
2018-11-07T00:07:37.069Z,40.43
2018-11-07T00:10:06.947Z,45.23
2018-11-07T00:12:37.349Z,47.30
2018-11-07T00:15:08.897Z,35.90
2018-11-07T00:17:37.936Z,44.97
2018-11-07T00:20:08.191Z,46.80
2018-11-07T00:22:37.401Z,54.03
2018-11-07T00:25:06.977Z,50.47
2018-11-07T00:27:36.006Z,49.60
2018-11-07T00:30:06.484Z,45.47
2018-11-07T00:32:35.397Z,38.07
2018-11-07T00:35:04.576Z,35.33
2018-11-07T00:37:33.840Z,35.53
2018-11-07T00:40:02.911Z,37.83
2018-11-07T00:42:31.892Z,45.17
2018-11-07T00:45:00.897Z,51.90
2018-11-07T00:47:29.919Z,41.10
2018-11-07T00:49:59.056Z,37.33
2018-11-07T00:52:28.061Z,51.60
2018-11-07T00:54:57.051Z,37.83
2018-11-07T00:57:26.656Z,44.63
2018-11-07T00:59:56.024Z,46.47
2018-11-07T01:02:25.022Z,42.67
2018-11-07T01:04:54.022Z,38.60
2018-11-07T01:07:22.998Z,35.87
2018-11-07T01:09:51.917Z,32.90
2018-11-07T01:12:21.742Z,36.13
2018-11-07T01:14:50.703Z,47.63
2018-11-07T01:17:20.186Z,45.80
2018-11-07T01:19:49.204Z,43.20
2018-11-07T01:22:18.423Z,45.70
2018-11-07T01:24:47.419Z,47.20
2018-11-07T01:27:16.364Z,42.03
2018-11-07T01:29:46.276Z,40.53
2018-11-07T01:32:15.304Z,43.10
2018-11-07T01:34:46.684Z,50.60
2018-11-07T01:37:15.751Z,44.07
2018-11-07T01:39:45.590Z,40.27
2018-11-07T01:42:14.776Z,40.40
2018-11-07T01:44:43.705Z,35.93
2018-11-07T01:47:12.634Z,34.57
2018-11-07T01:49:41.611Z,37.70
2018-11-07T01:52:10.688Z,40.43
2018-11-07T01:54:39.721Z,43.67
2018-11-07T01:57:09.239Z,34.07
2018-11-07T01:59:38.218Z,40.10
2018-11-07T02:02:07.175Z,39.10
2018-11-07T02:04:36.160Z,46.80
2018-11-07T02:07:05.666Z,46.33
2018-11-07T02:09:34.609Z,43.50
2018-11-07T02:12:03.569Z,38.80
2018-11-07T02:14:33.236Z,37.67
2018-11-07T02:17:02.237Z,41.93
2018-11-07T02:19:31.154Z,51.37
2018-11-07T02:22:00.116Z,43.37
2018-11-07T02:24:29.143Z,47.80
2018-11-07T02:26:58.068Z,43.07
2018-11-07T02:29:27.286Z,41.63
2018-11-07T02:31:56.245Z,44.30
2018-11-07T02:34:25.221Z,42.70
2018-11-07T02:36:54.207Z,38.83
2018-11-07T02:39:23.349Z,38.67
2018-11-07T02:41:52.512Z,41.27
2018-11-07T02:44:21.365Z,41.57
2018-11-07T02:46:51.074Z,40.27
2018-11-07T02:49:20.040Z,39.67
2018-11-07T02:51:49.117Z,36.83
2018-11-07T02:54:18.090Z,40.97
2018-11-07T02:56:47.116Z,38.30
2018-11-07T02:59:16.132Z,33.40
2018-11-07T03:01:45.159Z,36.63
2018-11-07T03:04:15.610Z,39.67
2018-11-07T03:06:44.657Z,39.93
2018-11-07T03:09:13.680Z,38.27
2018-11-07T03:11:42.686Z,41.73
2018-11-07T03:14:11.674Z,39.43
2018-11-07T03:16:40.690Z,36.37
2018-11-07T03:19:09.655Z,37.30
2018-11-07T03:21:40.861Z,36.57
2018-11-07T03:24:09.819Z,36.83
2018-11-07T03:26:38.789Z,34.43
2018-11-07T03:29:07.801Z,34.43
2018-11-07T03:31:36.847Z,35.20
2018-11-07T03:34:05.916Z,34.20
2018-11-07T03:36:34.853Z,35.40
2018-11-07T03:39:07.359Z,38.13
2018-11-07T03:41:36.359Z,40.40
2018-11-07T03:44:05.979Z,38.10
2018-11-07T03:46:34.941Z,39.73
2018-11-07T03:49:04.137Z,37.10
2018-11-07T03:51:33.056Z,40.40
2018-11-07T03:54:01.980Z,37.90
2018-11-07T03:56:31.214Z,39.40
2018-11-07T03:59:00.225Z,40.33
2018-11-07T04:01:30.014Z,39.63
2018-11-07T04:03:58.974Z,37.43
2018-11-07T04:06:28.268Z,37.63
2018-11-07T04:08:57.209Z,36.67
2018-11-07T04:11:26.190Z,36.57
2018-11-07T04:13:55.236Z,35.00
2018-11-07T04:16:24.267Z,35.30
2018-11-07T04:18:54.165Z,34.00
2018-11-07T04:21:23.117Z,34.20
2018-11-07T04:23:58.941Z,32.90
2018-11-07T04:26:27.890Z,34.07
2018-11-07T04:28:57.163Z,32.97
2018-11-07T04:31:26.130Z,34.60
2018-11-07T04:33:55.109Z,34.80
2018-11-07T04:36:25.406Z,33.70
2018-11-07T04:38:54.929Z,29.87
2018-11-07T04:41:24.755Z,31.37
2018-11-07T04:43:53.786Z,29.63
2018-11-07T04:46:22.754Z,30.03
2018-11-07T04:48:51.722Z,32.90
2018-11-07T04:51:20.728Z,29.40
2018-11-07T04:53:51.892Z,25.93
2018-11-07T04:56:20.865Z,26.57
2018-11-07T04:58:50.661Z,23.57
2018-11-07T05:01:19.681Z,23.07
2018-11-07T05:03:48.744Z,30.50
2018-11-07T05:06:17.793Z,31.67
2018-11-07T05:08:47.099Z,28.07
2018-11-07T05:11:15.980Z,40.80
2018-11-07T05:13:44.960Z,35.50
2018-11-07T05:16:13.886Z,40.13
2018-11-07T05:18:43.031Z,34.97
2018-11-07T05:21:12.340Z,34.50
2018-11-07T05:23:41.370Z,29.83
2018-11-07T05:26:10.503Z,30.77
2018-11-07T05:28:39.491Z,27.83
2018-11-07T05:31:08.515Z,26.07
2018-11-07T05:33:37.468Z,39.70
2018-11-07T05:36:06.863Z,33.67
2018-11-07T05:38:36.421Z,31.77
2018-11-07T05:41:05.702Z,32.80
2018-11-07T05:43:34.737Z,30.73
2018-11-07T05:46:03.842Z,35.23
2018-11-07T05:48:32.856Z,34.40
2018-11-07T05:51:01.974Z,32.20
2018-11-07T05:53:31.039Z,30.53
2018-11-07T05:56:01.080Z,34.83
2018-11-07T05:58:30.045Z,27.50
2018-11-07T06:00:59.142Z,27.77
2018-11-07T06:03:28.120Z,38.47
2018-11-07T06:05:57.239Z,42.13
2018-11-07T06:08:26.339Z,34.97
2018-11-07T06:10:55.406Z,32.73
2018-11-07T06:13:24.482Z,41.23
2018-11-07T06:15:53.525Z,40.57
2018-11-07T06:18:24.328Z,44.03
2018-11-07T06:20:53.348Z,32.27
2018-11-07T06:23:22.329Z,30.13
2018-11-07T06:25:51.297Z,28.30
2018-11-07T06:28:20.355Z,28.67
2018-11-07T06:30:49.511Z,24.97
2018-11-07T06:33:18.521Z,29.60
2018-11-07T06:35:48.551Z,28.90
2018-11-07T06:38:17.695Z,41.87
2018-11-07T06:40:46.812Z,24.33
2018-11-07T06:43:15.909Z,36.73
2018-11-07T06:45:45.072Z,23.80
2018-11-07T06:48:14.389Z,22.63
2018-11-07T06:50:43.424Z,20.33
2018-11-07T06:53:12.390Z,22.13
2018-11-07T06:55:41.486Z,33.33
2018-11-07T06:58:10.478Z,33.53
2018-11-07T07:00:39.737Z,46.77
2018-11-07T07:03:09.847Z,48.47
2018-11-07T07:05:38.915Z,40.93
2018-11-07T07:08:07.984Z,41.87
2018-11-07T07:10:37.467Z,40.80
2018-11-07T07:13:06.628Z,34.37
2018-11-07T07:15:35.733Z,38.67
2018-11-07T07:18:04.927Z,32.27
2018-11-07T07:20:33.989Z,28.53
2018-11-07T07:23:04.247Z,23.43
2018-11-07T07:25:33.356Z,20.83
2018-11-07T07:28:03.115Z,16.50
2018-11-07T07:30:32.256Z,15.87
2018-11-07T07:33:01.401Z,14.33
2018-11-07T07:35:30.451Z,13.27
2018-11-07T07:37:59.522Z,11.97
2018-11-07T07:40:29.379Z,13.50
2018-11-07T07:42:58.381Z,11.00
2018-11-07T07:45:27.411Z,11.70
2018-11-07T07:47:56.500Z,11.20
2018-11-07T07:50:25.841Z,11.73
2018-11-07T07:52:55.015Z,12.57
2018-11-07T07:55:24.286Z,11.17
2018-11-07T07:57:53.348Z,10.40
2018-11-07T08:00:22.331Z,9.87
2018-11-07T08:02:53.434Z,9.10
2018-11-07T08:05:22.678Z,9.50
2018-11-07T08:07:52.275Z,9.43
2018-11-07T08:10:22.132Z,8.83
2018-11-07T08:12:51.665Z,9.10
2018-11-07T08:15:20.641Z,10.93
2018-11-07T08:17:49.823Z,9.30
2018-11-07T08:20:19.064Z,8.05
2018-11-07T08:22:48.844Z,8.45
2018-11-07T08:25:17.911Z,10.30
2018-11-07T08:27:47.004Z,10.13
2018-11-07T08:30:18.124Z,10.20
2018-11-07T08:32:47.125Z,9.08
2018-11-07T08:35:16.705Z,9.78
2018-11-07T08:37:46.419Z,8.55
2018-11-07T08:40:23.677Z,9.55
2018-11-07T08:42:52.744Z,8.60
2018-11-07T08:45:21.782Z,10.05
2018-11-07T08:47:52.448Z,9.85
2018-11-07T08:50:21.784Z,9.15
2018-11-07T08:52:50.916Z,9.75
2018-11-07T08:55:22.184Z,9.00
2018-11-07T08:57:51.617Z,10.10
2018-11-07T09:00:24.831Z,9.60
2018-11-07T09:02:54.723Z,8.08
2018-11-07T09:05:23.868Z,7.08
2018-11-07T09:07:53.414Z,7.20
2018-11-07T09:10:23.386Z,7.03
2018-11-07T09:12:52.411Z,6.92
2018-11-07T09:15:22.486Z,6.67
2018-11-07T09:17:51.489Z,8.08
2018-11-07T09:20:21.984Z,7.30
2018-11-07T09:22:51.113Z,6.92
2018-11-07T09:25:20.653Z,6.95
2018-11-07T09:27:49.642Z,6.53
2018-11-07T09:30:22.975Z,6.28
2018-11-07T09:32:52.044Z,6.30
2018-11-07T09:35:21.848Z,6.00
2018-11-07T09:37:50.838Z,5.60
2018-11-07T09:40:21.002Z,6.50
2018-11-07T09:42:50.409Z,5.60
2018-11-07T09:45:20.826Z,5.30
2018-11-07T09:47:49.877Z,4.97
2018-11-07T09:50:19.234Z,4.55
2018-11-07T09:52:48.265Z,4.80
2018-11-07T09:55:18.623Z,5.10
2018-11-07T09:57:47.605Z,4.60
2018-11-07T10:00:18.514Z,5.00
2018-11-07T10:02:47.670Z,5.17
2018-11-07T10:05:17.799Z,4.00
2018-11-07T10:07:46.786Z,4.80
2018-11-07T10:10:18.366Z,5.33
2018-11-07T10:12:47.741Z,3.95
2018-11-07T10:15:16.900Z,4.45
2018-11-07T10:17:45.939Z,4.90
2018-11-07T10:20:16.624Z,5.83
2018-11-07T10:22:46.805Z,5.70
2018-11-07T10:25:15.970Z,5.42
2018-11-07T10:27:45.339Z,4.87
2018-11-07T10:30:15.694Z,5.00
2018-11-07T10:32:45.664Z,4.40
2018-11-07T10:35:14.658Z,3.90
2018-11-07T10:37:44.200Z,4.60
2018-11-07T10:40:20.486Z,4.70
2018-11-07T10:42:50.042Z,4.85
2018-11-07T10:45:19.124Z,3.85
2018-11-07T10:47:49.355Z,4.12
2018-11-07T10:50:19.238Z,4.17
2018-11-07T10:52:48.918Z,4.40
2018-11-07T10:55:18.421Z,3.80
2018-11-07T10:57:47.724Z,4.50
2018-11-07T11:00:22.027Z,4.12
2018-11-07T11:02:57.588Z,4.12
2018-11-07T11:05:26.803Z,3.70
2018-11-07T11:07:56.748Z,4.25
2018-11-07T11:10:25.804Z,4.10
2018-11-07T11:12:54.937Z,4.10
2018-11-07T11:15:23.909Z,4.05
2018-11-07T11:17:52.953Z,4.28
2018-11-07T11:20:21.984Z,4.47
2018-11-07T11:22:51.112Z,4.50
2018-11-07T11:25:20.164Z,4.93
2018-11-07T11:27:49.473Z,4.33
2018-11-07T11:30:19.401Z,3.67
2018-11-07T11:32:48.396Z,3.67
2018-11-07T11:35:17.541Z,4.37
2018-11-07T11:37:46.454Z,3.00
2018-11-07T11:40:15.902Z,3.20
2018-11-07T11:42:45.530Z,3.30
2018-11-07T11:45:16.385Z,3.13
2018-11-07T11:47:46.051Z,3.10
2018-11-07T11:50:19.779Z,3.50
2018-11-07T11:52:49.514Z,3.40
2018-11-07T11:55:18.769Z,3.20
2018-11-07T11:57:49.135Z,3.73
2018-11-07T12:00:19.830Z,3.30
2018-11-07T12:02:49.260Z,3.73
2018-11-07T12:05:18.980Z,4.13
2018-11-07T12:07:48.011Z,3.60
2018-11-07T12:10:17.068Z,3.03
2018-11-07T12:12:50.695Z,2.73
2018-11-07T12:15:20.809Z,2.60
2018-11-07T12:17:49.858Z,2.67
2018-11-07T12:20:19.586Z,2.50
2018-11-07T12:22:48.533Z,2.83
2018-11-07T12:25:19.074Z,2.47
2018-11-07T12:27:48.048Z,2.83
2018-11-07T12:30:20.857Z,2.63
2018-11-07T12:32:51.078Z,2.50
2018-11-07T12:35:20.575Z,2.33
2018-11-07T12:37:49.751Z,1.97
2018-11-07T12:40:19.570Z,2.30
2018-11-07T12:42:48.545Z,2.40
2018-11-07T12:45:17.930Z,2.10
2018-11-07T12:47:47.197Z,1.83
2018-11-07T12:50:21.683Z,1.90
2018-11-07T12:52:51.313Z,1.90
2018-11-07T12:55:21.106Z,1.60
2018-11-07T12:57:50.180Z,1.60
2018-11-07T13:00:23.252Z,1.90
2018-11-07T13:02:52.386Z,1.50
2018-11-07T13:05:22.708Z,1.40
2018-11-07T13:07:53.433Z,1.80
2018-11-07T13:10:23.146Z,1.90
2018-11-07T13:12:53.459Z,1.77
2018-11-07T13:15:22.441Z,1.67
2018-11-07T13:17:52.846Z,1.70
2018-11-07T13:20:28.813Z,1.47
2018-11-07T13:22:58.532Z,2.00
2018-11-07T13:25:27.471Z,1.90
2018-11-07T13:27:56.652Z,1.97
2018-11-07T13:30:25.811Z,1.50
2018-11-07T13:32:54.859Z,2.00
2018-11-07T13:35:23.995Z,1.97
2018-11-07T13:37:53.891Z,1.90
2018-11-07T13:40:24.093Z,1.67
2018-11-07T13:42:53.323Z,2.10
2018-11-07T13:45:23.232Z,1.90
2018-11-07T13:47:53.372Z,1.90
2018-11-07T13:50:22.473Z,2.17
2018-11-07T13:52:52.417Z,1.60
2018-11-07T13:55:21.408Z,1.40
2018-11-07T13:57:50.909Z,1.77
2018-11-07T14:00:21.408Z,1.40
2018-11-07T14:02:51.939Z,1.43
2018-11-07T14:05:21.098Z,1.77
2018-11-07T14:07:50.068Z,2.00
2018-11-07T14:10:22.976Z,1.87
2018-11-07T14:12:52.486Z,2.47
2018-11-07T14:15:21.680Z,2.07
2018-11-07T14:17:50.947Z,2.00
2018-11-07T14:20:19.919Z,2.33
2018-11-07T14:22:49.086Z,2.00
2018-11-07T14:25:18.144Z,2.30
2018-11-07T14:27:47.854Z,2.10
2018-11-07T14:30:18.261Z,2.00
2018-11-07T14:32:55.455Z,2.20
2018-11-07T14:35:24.591Z,2.20
2018-11-07T14:37:54.560Z,2.53
2018-11-07T14:40:24.270Z,2.10
2018-11-07T14:42:53.394Z,2.80
2018-11-07T14:45:22.427Z,2.50
2018-11-07T14:47:51.792Z,2.70
2018-11-07T14:50:20.880Z,2.70
2018-11-07T14:52:49.935Z,3.20
2018-11-07T14:55:19.079Z,3.07
2018-11-07T14:57:48.796Z,2.93
2018-11-07T15:00:18.157Z,2.97
2018-11-07T15:02:47.540Z,2.97
2018-11-07T15:05:17.501Z,3.33
2018-11-07T15:07:47.297Z,5.37
2018-11-07T15:10:17.112Z,5.03
2018-11-07T15:12:47.214Z,4.27
2018-11-07T15:15:17.863Z,4.37
2018-11-07T15:17:47.079Z,4.40
2018-11-07T15:20:17.135Z,4.53
2018-11-07T15:22:46.200Z,5.40
2018-11-07T15:25:16.309Z,5.40
2018-11-07T15:27:46.287Z,5.10
2018-11-07T15:30:16.175Z,5.90
2018-11-07T15:32:45.878Z,7.57
2018-11-07T15:35:15.191Z,7.47
2018-11-07T15:37:44.462Z,7.10
2018-11-07T15:40:14.852Z,6.10
2018-11-07T15:42:44.504Z,7.03
2018-11-07T15:45:19.034Z,6.07
2018-11-07T15:47:48.235Z,7.40
2018-11-07T15:50:22.883Z,9.07
2018-11-07T15:52:52.607Z,8.37
2018-11-07T15:55:21.737Z,8.97
2018-11-07T15:57:50.861Z,8.80
2018-11-07T16:00:20.002Z,11.07
2018-11-07T16:02:49.134Z,11.40
2018-11-07T16:05:20.440Z,9.83
2018-11-07T16:07:49.553Z,7.90
2018-11-07T16:10:18.619Z,8.10
2018-11-07T16:12:47.872Z,9.63
2018-11-07T16:15:17.991Z,9.80
2018-11-07T16:17:47.112Z,8.23
2018-11-07T16:20:17.794Z,6.97
2018-11-07T16:22:47.660Z,8.30
2018-11-07T16:25:16.982Z,7.73
2018-11-07T16:27:46.359Z,6.53
2018-11-07T16:30:19.970Z,6.10
2018-11-07T16:32:49.060Z,5.77
2018-11-07T16:35:18.245Z,5.60
2018-11-07T16:37:47.319Z,4.90
2018-11-07T16:40:17.485Z,5.43
2018-11-07T16:42:46.765Z,6.00
2018-11-07T16:45:16.594Z,6.13
2018-11-07T16:47:45.900Z,6.03
2018-11-07T16:50:15.954Z,4.80
2018-11-07T16:52:45.121Z,6.30
2018-11-07T16:55:14.293Z,7.30
2018-11-07T16:57:43.606Z,7.27
2018-11-07T17:00:14.438Z,7.77
2018-11-07T17:02:44.166Z,5.97
2018-11-07T17:05:13.879Z,5.93
2018-11-07T17:07:43.063Z,7.07
2018-11-07T17:10:12.594Z,6.60
2018-11-07T17:12:43.902Z,7.47
2018-11-07T17:15:12.884Z,6.60
2018-11-07T17:17:41.953Z,6.63
2018-11-07T17:20:12.281Z,7.07
2018-11-07T17:22:41.527Z,7.83
2018-11-07T17:25:13.941Z,8.13
2018-11-07T17:27:43.036Z,8.00
2018-11-07T17:30:13.369Z,7.50
2018-11-07T17:32:42.501Z,6.07
2018-11-07T17:35:14.239Z,6.50
2018-11-07T17:37:43.644Z,6.40
2018-11-07T17:40:14.815Z,6.73
2018-11-07T17:42:44.978Z,5.33
2018-11-07T17:45:15.747Z,5.20
2018-11-07T17:47:45.734Z,5.97
2018-11-07T17:50:15.669Z,7.37
2018-11-07T17:52:44.638Z,6.73
2018-11-07T17:55:14.766Z,7.93
2018-11-07T17:57:43.825Z,7.80
2018-11-07T18:00:14.893Z,7.80
2018-11-07T18:02:44.137Z,6.73
2018-11-07T18:05:13.234Z,7.33
2018-11-07T18:07:42.319Z,7.97
2018-11-07T18:10:18.546Z,7.30
2018-11-07T18:12:49.512Z,8.47
2018-11-07T18:15:18.545Z,6.60
2018-11-07T18:17:47.631Z,7.20
2018-11-07T18:20:17.439Z,7.10
2018-11-07T18:22:46.452Z,7.30
2018-11-07T18:25:16.337Z,9.27
2018-11-07T18:27:45.456Z,10.40
2018-11-07T18:30:15.831Z,8.20
2018-11-07T18:32:45.544Z,7.90
2018-11-07T18:35:15.815Z,8.97
2018-11-07T18:37:45.470Z,7.70
2018-11-07T18:40:16.142Z,8.20
2018-11-07T18:42:45.370Z,8.00
2018-11-07T18:45:14.913Z,7.83
2018-11-07T18:47:46.185Z,8.70
2018-11-07T18:50:17.311Z,8.40
2018-11-07T18:52:46.336Z,8.50
2018-11-07T18:55:17.028Z,9.10
2018-11-07T18:57:48.061Z,8.90
2018-11-07T19:00:19.633Z,8.30
2018-11-07T19:02:51.844Z,9.20
2018-11-07T19:05:22.837Z,8.97
2018-11-07T19:07:55.413Z,10.70
2018-11-07T19:10:27.249Z,8.43
2018-11-07T19:12:57.066Z,9.37
2018-11-07T19:15:29.357Z,9.40
2018-11-07T19:17:59.721Z,11.07
2018-11-07T19:20:33.647Z,11.03
2018-11-07T19:23:04.555Z,12.77
2018-11-07T19:25:45.078Z,11.40
2018-11-07T19:28:18.338Z,12.47
2018-11-07T19:30:52.519Z,11.70
2018-11-07T19:33:30.185Z,11.37
2018-11-07T19:36:03.757Z,9.53
2018-11-07T19:38:34.446Z,10.53
2018-11-07T19:41:10.546Z,11.83
2018-11-07T19:43:41.466Z,10.50
2018-11-07T19:46:14.552Z,10.90
2018-11-07T19:48:43.890Z,9.30
2018-11-07T19:51:14.149Z,9.60
2018-11-07T19:53:43.391Z,10.43
2018-11-07T19:56:12.562Z,9.73
2018-11-07T19:58:41.845Z,11.40
2018-11-07T20:01:11.310Z,10.70
2018-11-07T20:03:40.493Z,10.50
2018-11-07T20:06:09.885Z,9.80
2018-11-07T20:08:39.136Z,9.87
2018-11-07T20:11:08.434Z,12.90
2018-11-07T20:13:38.316Z,15.67
2018-11-07T20:16:07.641Z,13.63
2018-11-07T20:18:37.819Z,13.83
2018-11-07T20:21:07.301Z,11.73
2018-11-07T20:23:38.338Z,10.40
2018-11-07T20:26:08.380Z,10.40
2018-11-07T20:28:37.528Z,8.87
2018-11-07T20:31:07.473Z,9.83
2018-11-07T20:33:37.112Z,8.97
2018-11-07T20:36:07.042Z,9.43
2018-11-07T20:38:36.216Z,11.10
2018-11-07T20:41:05.857Z,10.90
2018-11-07T20:43:35.539Z,10.13
2018-11-07T20:46:05.439Z,11.53
2018-11-07T20:48:34.574Z,10.50
2018-11-07T20:51:06.001Z,10.00
2018-11-07T20:53:36.236Z,9.30
2018-11-07T20:56:07.263Z,9.20
2018-11-07T20:58:36.429Z,8.57
2018-11-07T21:01:05.799Z,12.13
2018-11-07T21:03:34.976Z,14.07
2018-11-07T21:06:04.358Z,12.30
2018-11-07T21:08:33.585Z,14.53
2018-11-07T21:11:02.738Z,14.07
2018-11-07T21:13:31.877Z,16.43
2018-11-07T21:16:01.922Z,13.50
2018-11-07T21:18:32.164Z,12.17
2018-11-07T21:21:01.238Z,11.83
2018-11-07T21:23:30.487Z,12.80
2018-11-07T21:25:59.617Z,13.13
2018-11-07T21:28:28.683Z,12.20
2018-11-07T21:30:57.857Z,12.63
2018-11-07T21:33:26.936Z,12.80
2018-11-07T21:35:56.275Z,15.40
2018-11-07T21:38:25.564Z,12.90
2018-11-07T21:40:54.764Z,12.40
2018-11-07T21:43:24.009Z,12.20
2018-11-07T21:45:53.173Z,11.03
2018-11-07T21:48:22.205Z,12.20
2018-11-07T21:50:51.706Z,12.53
2018-11-07T21:53:20.820Z,11.27
2018-11-07T21:55:50.186Z,11.33
2018-11-07T21:58:19.288Z,13.27
2018-11-07T22:00:48.518Z,11.57
2018-11-07T22:03:17.945Z,15.07
2018-11-07T22:05:47.056Z,14.50
2018-11-07T22:08:16.387Z,12.83
2018-11-07T22:10:45.424Z,12.90
2018-11-07T22:13:14.883Z,13.07
2018-11-07T22:15:44.598Z,14.70
2018-11-07T22:18:13.697Z,13.83
2018-11-07T22:20:42.796Z,15.07
2018-11-07T22:23:12.049Z,14.37
2018-11-07T22:25:41.378Z,12.80
2018-11-07T22:28:10.552Z,13.10
2018-11-07T22:30:39.626Z,11.83
2018-11-07T22:33:09.002Z,10.90
2018-11-07T22:35:38.119Z,10.43
2018-11-07T22:38:07.232Z,12.80
2018-11-07T22:40:36.244Z,10.97
2018-11-07T22:43:05.603Z,12.47
2018-11-07T22:45:34.658Z,11.50
2018-11-07T22:48:07.735Z,11.43
2018-11-07T22:50:43.274Z,12.53
2018-11-07T22:53:12.904Z,12.83
2018-11-07T22:55:42.000Z,11.97
2018-11-07T22:58:11.152Z,12.70
2018-11-07T23:01:48.056Z,11.80
2018-11-07T23:04:17.627Z,15.13
2018-11-07T23:06:47.609Z,14.10
2018-11-07T23:09:18.085Z,13.07
2018-11-07T23:11:53.355Z,12.23
2018-11-07T23:14:30.395Z,12.17
2018-11-07T23:16:59.612Z,13.47
2018-11-07T23:19:29.423Z,11.77
2018-11-07T23:21:58.611Z,12.10
2018-11-07T23:24:27.711Z,11.53
2018-11-07T23:26:57.413Z,10.30
2018-11-07T23:29:26.842Z,9.73
2018-11-07T23:31:56.060Z,12.33
2018-11-07T23:34:25.364Z,12.63
2018-11-07T23:36:54.453Z,13.27
2018-11-07T23:39:23.573Z,12.80
2018-11-07T23:41:54.286Z,14.23
2018-11-07T23:44:23.357Z,12.90
2018-11-07T23:46:52.383Z,12.43
2018-11-07T23:49:21.526Z,12.77
2018-11-07T23:51:50.756Z,14.20
2018-11-07T23:54:21.335Z,15.57
2018-11-07T23:56:51.168Z,15.57
2018-11-07T23:59:22.967Z,13.83
